sensor_id;sensor_type;location;lat;lon;timestamp;pressure;altitude;pressure_sealevel;temperature;humidity
33422;BME280;19763;55.798;37.782;2023-02-16T00:01:57;146822.91;;;-2.05;74.23
33422;BME280;19763;55.798;37.782;2023-02-16T00:04:28;146798.78;;;-2.15;74.66
33422;BME280;19763;55.798;37.782;2023-02-16T00:06:54;146802.59;;;-2.13;75.16
33422;BME280;19763;55.798;37.782;2023-02-16T00:09:22;146827.97;;;-2.03;75.17
33422;BME280;19763;55.798;37.782;2023-02-16T00:11:49;146817.81;;;-2.07;74.64
33422;BME280;19763;55.798;37.782;2023-02-16T00:14:35;146788.63;;;-2.19;74.29
33422;BME280;19763;55.798;37.782;2023-02-16T00:17:02;146793.69;;;-2.17;75.04
33422;BME280;19763;55.798;37.782;2023-02-16T00:19:29;146814.00;;;-2.09;75.04
33422;BME280;19763;55.798;37.782;2023-02-16T00:21:57;146805.16;;;-2.12;74.72
33422;BME280;19763;55.798;37.782;2023-02-16T00:24:24;146768.31;;;-2.27;74.05
33422;BME280;19763;55.798;37.782;2023-02-16T00:26:53;146778.47;;;-2.23;74.65
33422;BME280;19763;55.798;37.782;2023-02-16T00:29:32;146764.53;;;-2.29;74.68
33422;BME280;19763;55.798;37.782;2023-02-16T00:32:00;146774.69;;;-2.24;74.50
33422;BME280;19763;55.798;37.782;2023-02-16T00:34:28;146787.38;;;-2.19;74.72
33422;BME280;19763;55.798;37.782;2023-02-16T00:36:55;146787.38;;;-2.19;75.46
33422;BME280;19763;55.798;37.782;2023-02-16T00:39:22;146749.31;;;-2.35;75.41
33422;BME280;19763;55.798;37.782;2023-02-16T00:41:49;146769.63;;;-2.27;74.94
33422;BME280;19763;55.798;37.782;2023-02-16T00:44:18;146767.06;;;-2.28;74.78
33422;BME280;19763;55.798;37.782;2023-02-16T00:46:46;146782.28;;;-2.21;74.63
33422;BME280;19763;55.798;37.782;2023-02-16T00:49:16;146736.59;;;-2.40;74.87
33422;BME280;19763;55.798;37.782;2023-02-16T00:51:43;146759.47;;;-2.31;75.82
33422;BME280;19763;55.798;37.782;2023-02-16T00:54:09;146729.00;;;-2.43;74.88
33422;BME280;19763;55.798;37.782;2023-02-16T00:56:35;146732.81;;;-2.41;74.95
33422;BME280;19763;55.798;37.782;2023-02-16T00:59:01;146759.47;;;-2.31;75.22
33422;BME280;19763;55.798;37.782;2023-02-16T01:01:31;146711.25;;;-2.50;74.96
33422;BME280;19763;55.798;37.782;2023-02-16T01:04:00;146703.63;;;-2.53;75.39
33422;BME280;19763;55.798;37.782;2023-02-16T01:06:26;146745.50;;;-2.36;75.53
33422;BME280;19763;55.798;37.782;2023-02-16T01:09:18;146706.13;;;-2.52;75.05
33422;BME280;19763;55.798;37.782;2023-02-16T01:12:12;146703.63;;;-2.53;74.53
33422;BME280;19763;55.798;37.782;2023-02-16T01:14:38;146750.56;;;-2.34;75.55
33422;BME280;19763;55.798;37.782;2023-02-16T01:17:04;146751.81;;;-2.34;75.14
33422;BME280;19763;55.798;37.782;2023-02-16T01:19:29;146721.41;;;-2.46;74.99
33422;BME280;19763;55.798;37.782;2023-02-16T01:21:55;146742.97;;;-2.37;75.59
33422;BME280;19763;55.798;37.782;2023-02-16T01:24:20;146749.31;;;-2.35;75.53
33422;BME280;19763;55.798;37.782;2023-02-16T01:26:48;146690.94;;;-2.58;75.64
33422;BME280;19763;55.798;37.782;2023-02-16T01:29:16;146734.06;;;-2.41;75.76
33422;BME280;19763;55.798;37.782;2023-02-16T01:31:43;146760.72;;;-2.30;75.98
33422;BME280;19763;55.798;37.782;2023-02-16T01:34:09;146754.38;;;-2.33;76.08
33422;BME280;19763;55.798;37.782;2023-02-16T01:36:43;146739.16;;;-2.39;75.21
33422;BME280;19763;55.798;37.782;2023-02-16T01:39:18;146767.06;;;-2.28;75.06
33422;BME280;19763;55.798;37.782;2023-02-16T01:44:53;146764.53;;;-2.29;75.18
33422;BME280;19763;55.798;37.782;2023-02-16T01:49:55;146777.22;;;-2.23;75.63
33422;BME280;19763;55.798;37.782;2023-02-16T01:52:35;146741.72;;;-2.38;74.65
33422;BME280;19763;55.798;37.782;2023-02-16T01:55:19;146710.00;;;-2.51;76.03
33422;BME280;19763;55.798;37.782;2023-02-16T01:57:49;146680.78;;;-2.63;77.04
33422;BME280;19763;55.798;37.782;2023-02-16T02:02:53;146687.13;;;-2.60;78.12
33422;BME280;19763;55.798;37.782;2023-02-16T02:05:40;146703.63;;;-2.53;78.93
33422;BME280;19763;55.798;37.782;2023-02-16T02:11:04;146713.78;;;-2.49;79.52
33422;BME280;19763;55.798;37.782;2023-02-16T02:13:46;146697.28;;;-2.56;78.40
33422;BME280;19763;55.798;37.782;2023-02-16T02:16:17;146690.94;;;-2.58;78.36
33422;BME280;19763;55.798;37.782;2023-02-16T02:18:44;146692.19;;;-2.58;77.93
33422;BME280;19763;55.798;37.782;2023-02-16T02:32:54;146678.28;;;-2.64;78.36
33422;BME280;19763;55.798;37.782;2023-02-16T02:38:00;146702.34;;;-2.54;77.66
33422;BME280;19763;55.798;37.782;2023-02-16T02:45:49;146701.09;;;-2.54;77.77
33422;BME280;19763;55.798;37.782;2023-02-16T02:48:17;146706.13;;;-2.52;76.79
33422;BME280;19763;55.798;37.782;2023-02-16T02:50:58;146721.41;;;-2.46;77.54
33422;BME280;19763;55.798;37.782;2023-02-16T02:53:50;146702.34;;;-2.54;77.14
33422;BME280;19763;55.798;37.782;2023-02-16T02:56:38;146721.41;;;-2.46;77.11
33422;BME280;19763;55.798;37.782;2023-02-16T02:59:24;146730.25;;;-2.43;77.09
33422;BME280;19763;55.798;37.782;2023-02-16T03:02:11;146735.34;;;-2.40;76.76
33422;BME280;19763;55.798;37.782;2023-02-16T03:04:38;146734.06;;;-2.41;77.38
33422;BME280;19763;55.798;37.782;2023-02-16T03:07:04;146734.06;;;-2.41;77.08
33422;BME280;19763;55.798;37.782;2023-02-16T03:09:30;146698.53;;;-2.55;76.69
33422;BME280;19763;55.798;37.782;2023-02-16T03:11:57;146701.09;;;-2.54;76.55
33422;BME280;19763;55.798;37.782;2023-02-16T03:14:46;146713.78;;;-2.49;76.88
33422;BME280;19763;55.798;37.782;2023-02-16T03:17:21;146702.34;;;-2.54;76.94
33422;BME280;19763;55.798;37.782;2023-02-16T03:20:08;146673.19;;;-2.66;76.92
33422;BME280;19763;55.798;37.782;2023-02-16T03:22:55;146720.09;;;-2.47;77.44
33422;BME280;19763;55.798;37.782;2023-02-16T03:25:40;146713.78;;;-2.49;77.33
33422;BME280;19763;55.798;37.782;2023-02-16T03:28:28;146666.84;;;-2.68;76.87
33422;BME280;19763;55.798;37.782;2023-02-16T03:31:15;146702.34;;;-2.54;76.51
33422;BME280;19763;55.798;37.782;2023-02-16T03:33:43;146703.63;;;-2.53;76.88
33422;BME280;19763;55.798;37.782;2023-02-16T03:36:10;146744.22;;;-2.37;76.30
33422;BME280;19763;55.798;37.782;2023-02-16T03:38:36;146717.59;;;-2.48;76.54
33422;BME280;19763;55.798;37.782;2023-02-16T03:41:03;146613.56;;;-2.90;76.85
33422;BME280;19763;55.798;37.782;2023-02-16T03:43:29;146633.88;;;-2.82;76.45
33422;BME280;19763;55.798;37.782;2023-02-16T03:45:55;146586.94;;;-3.01;76.46
33422;BME280;19763;55.798;37.782;2023-02-16T03:48:21;146560.31;;;-3.12;77.16
33422;BME280;19763;55.798;37.782;2023-02-16T03:50:47;146557.78;;;-3.13;77.04
33422;BME280;19763;55.798;37.782;2023-02-16T03:53:12;146609.78;;;-2.91;78.30
33422;BME280;19763;55.798;37.782;2023-02-16T03:58:06;146589.47;;;-3.00;77.89
33422;BME280;19763;55.798;37.782;2023-02-16T04:00:33;146588.22;;;-3.00;77.33
33422;BME280;19763;55.798;37.782;2023-02-16T04:03:00;146602.19;;;-2.95;77.53
33422;BME280;19763;55.798;37.782;2023-02-16T04:05:25;146583.13;;;-3.02;77.45
33422;BME280;19763;55.798;37.782;2023-02-16T04:07:51;146551.44;;;-3.15;77.53
33422;BME280;19763;55.798;37.782;2023-02-16T04:10:17;146533.69;;;-3.22;77.50
33422;BME280;19763;55.798;37.782;2023-02-16T04:12:43;146592.03;;;-2.99;77.95
33422;BME280;19763;55.798;37.782;2023-02-16T04:15:24;146523.53;;;-3.26;77.41
33422;BME280;19763;55.798;37.782;2023-02-16T04:17:50;146502.00;;;-3.35;78.24
33422;BME280;19763;55.798;37.782;2023-02-16T04:20:19;146505.78;;;-3.34;78.06
33422;BME280;19763;55.798;37.782;2023-02-16T04:22:46;146532.44;;;-3.23;77.86
33422;BME280;19763;55.798;37.782;2023-02-16T04:25:12;146502.00;;;-3.35;78.31
33422;BME280;19763;55.798;37.782;2023-02-16T04:27:39;146475.41;;;-3.46;78.22
33422;BME280;19763;55.798;37.782;2023-02-16T04:30:06;146537.47;;;-3.21;78.37
33422;BME280;19763;55.798;37.782;2023-02-16T04:32:32;146512.13;;;-3.31;77.93
33422;BME280;19763;55.798;37.782;2023-02-16T04:34:58;146491.84;;;-3.39;77.59
33422;BME280;19763;55.798;37.782;2023-02-16T04:37:24;146512.13;;;-3.31;77.72
33422;BME280;19763;55.798;37.782;2023-02-16T04:39:49;146513.44;;;-3.31;78.14
33422;BME280;19763;55.798;37.782;2023-02-16T04:42:15;146550.19;;;-3.16;78.51
33422;BME280;19763;55.798;37.782;2023-02-16T04:44:41;146545.13;;;-3.18;77.83
33422;BME280;19763;55.798;37.782;2023-02-16T04:47:07;146524.84;;;-3.26;78.20
33422;BME280;19763;55.798;37.782;2023-02-16T04:49:32;146553.97;;;-3.14;78.53
33422;BME280;19763;55.798;37.782;2023-02-16T04:51:58;146557.78;;;-3.13;77.74
33422;BME280;19763;55.798;37.782;2023-02-16T04:54:25;146553.97;;;-3.14;77.66
33422;BME280;19763;55.798;37.782;2023-02-16T04:56:52;146585.69;;;-3.01;77.44
33422;BME280;19763;55.798;37.782;2023-02-16T04:59:17;146604.72;;;-2.93;76.62
33422;BME280;19763;55.798;37.782;2023-02-16T05:01:43;146589.47;;;-3.00;77.02
33422;BME280;19763;55.798;37.782;2023-02-16T05:04:09;146566.69;;;-3.09;76.99
33422;BME280;19763;55.798;37.782;2023-02-16T05:06:36;146540.03;;;-3.20;77.07
33422;BME280;19763;55.798;37.782;2023-02-16T05:09:03;146605.97;;;-2.93;77.50
33422;BME280;19763;55.798;37.782;2023-02-16T05:11:29;146592.03;;;-2.99;77.31
33422;BME280;19763;55.798;37.782;2023-02-16T05:14:26;146550.19;;;-3.16;77.80
33422;BME280;19763;55.798;37.782;2023-02-16T05:17:24;146514.69;;;-3.30;78.09
33422;BME280;19763;55.798;37.782;2023-02-16T05:19:56;146537.47;;;-3.21;78.42
33422;BME280;19763;55.798;37.782;2023-02-16T05:22:22;146573.03;;;-3.06;78.16
33422;BME280;19763;55.798;37.782;2023-02-16T05:24:48;146561.56;;;-3.11;76.91
33422;BME280;19763;55.798;37.782;2023-02-16T05:27:20;146515.94;;;-3.30;77.10
33422;BME280;19763;55.798;37.782;2023-02-16T05:29:47;146569.19;;;-3.08;77.80
33422;BME280;19763;55.798;37.782;2023-02-16T05:32:12;146536.22;;;-3.21;77.10
33422;BME280;19763;55.798;37.782;2023-02-16T05:34:38;146528.63;;;-3.24;77.66
33422;BME280;19763;55.798;37.782;2023-02-16T05:37:04;146571.72;;;-3.07;77.80
33422;BME280;19763;55.798;37.782;2023-02-16T05:39:30;146527.38;;;-3.25;77.92
33422;BME280;19763;55.798;37.782;2023-02-16T05:41:56;146536.22;;;-3.21;78.29
33422;BME280;19763;55.798;37.782;2023-02-16T05:44:21;146553.97;;;-3.14;77.70
33422;BME280;19763;55.798;37.782;2023-02-16T05:46:47;146566.69;;;-3.09;77.73
33422;BME280;19763;55.798;37.782;2023-02-16T05:49:14;146562.88;;;-3.10;77.52
33422;BME280;19763;55.798;37.782;2023-02-16T05:51:40;146552.72;;;-3.15;77.91
33422;BME280;19763;55.798;37.782;2023-02-16T05:54:06;146583.13;;;-3.02;78.14
33422;BME280;19763;55.798;37.782;2023-02-16T05:56:32;146604.72;;;-2.93;77.71
33422;BME280;19763;55.798;37.782;2023-02-16T05:58:59;146564.13;;;-3.10;77.40
33422;BME280;19763;55.798;37.782;2023-02-16T06:01:26;146608.53;;;-2.92;76.94
33422;BME280;19763;55.798;37.782;2023-02-16T06:03:51;146609.78;;;-2.91;76.67
33422;BME280;19763;55.798;37.782;2023-02-16T06:06:17;146617.38;;;-2.88;76.76
33422;BME280;19763;55.798;37.782;2023-02-16T06:08:43;146640.22;;;-2.79;77.03
33422;BME280;19763;55.798;37.782;2023-02-16T06:11:08;146633.88;;;-2.82;75.98
33422;BME280;19763;55.798;37.782;2023-02-16T06:13:54;146602.19;;;-2.95;75.53
33422;BME280;19763;55.798;37.782;2023-02-16T06:16:27;146595.81;;;-2.97;76.88
33422;BME280;19763;55.798;37.782;2023-02-16T06:18:54;146602.19;;;-2.95;76.85
33422;BME280;19763;55.798;37.782;2023-02-16T06:21:20;146645.28;;;-2.77;76.33
33422;BME280;19763;55.798;37.782;2023-02-16T06:23:47;146647.81;;;-2.76;75.70
33422;BME280;19763;55.798;37.782;2023-02-16T06:26:13;146616.13;;;-2.89;75.91
33422;BME280;19763;55.798;37.782;2023-02-16T06:28:39;146660.47;;;-2.71;76.08
33422;BME280;19763;55.798;37.782;2023-02-16T06:31:04;146609.78;;;-2.91;74.88
33422;BME280;19763;55.798;37.782;2023-02-16T06:33:30;146623.72;;;-2.86;75.35
33422;BME280;19763;55.798;37.782;2023-02-16T06:35:56;146603.41;;;-2.94;75.20
33422;BME280;19763;55.798;37.782;2023-02-16T06:38:21;146602.19;;;-2.95;75.31
33422;BME280;19763;55.798;37.782;2023-02-16T06:40:50;146569.19;;;-3.08;75.73
33422;BME280;19763;55.798;37.782;2023-02-16T06:43:16;146633.88;;;-2.82;75.79
33422;BME280;19763;55.798;37.782;2023-02-16T06:45:42;146649.09;;;-2.75;75.73
33422;BME280;19763;55.798;37.782;2023-02-16T06:48:07;146604.72;;;-2.93;74.64
33422;BME280;19763;55.798;37.782;2023-02-16T06:50:33;146594.56;;;-2.98;75.19
33422;BME280;19763;55.798;37.782;2023-02-16T06:52:58;146640.22;;;-2.79;75.12
33422;BME280;19763;55.798;37.782;2023-02-16T06:55:24;146642.72;;;-2.78;74.99
33422;BME280;19763;55.798;37.782;2023-02-16T06:57:49;146604.72;;;-2.93;74.91
33422;BME280;19763;55.798;37.782;2023-02-16T07:00:15;146609.78;;;-2.91;75.20
33422;BME280;19763;55.798;37.782;2023-02-16T07:02:41;146550.19;;;-3.16;75.43
33422;BME280;19763;55.798;37.782;2023-02-16T07:05:08;146621.19;;;-2.87;74.84
33422;BME280;19763;55.798;37.782;2023-02-16T07:07:34;146657.97;;;-2.72;75.35
33422;BME280;19763;55.798;37.782;2023-02-16T07:10:00;146685.88;;;-2.61;74.00
33422;BME280;19763;55.798;37.782;2023-02-16T07:12:27;146708.69;;;-2.51;73.68
33422;BME280;19763;55.798;37.782;2023-02-16T07:14:53;146730.25;;;-2.43;73.44
33422;BME280;19763;55.798;37.782;2023-02-16T07:17:19;146775.94;;;-2.24;72.69
33422;BME280;19763;55.798;37.782;2023-02-16T07:19:44;146735.34;;;-2.40;72.65
33422;BME280;19763;55.798;37.782;2023-02-16T07:22:10;146673.19;;;-2.66;73.08
33422;BME280;19763;55.798;37.782;2023-02-16T07:24:36;146740.41;;;-2.38;72.25
33422;BME280;19763;55.798;37.782;2023-02-16T07:27:01;146792.44;;;-2.17;72.63
33422;BME280;19763;55.798;37.782;2023-02-16T07:29:28;146792.44;;;-2.17;72.55
33422;BME280;19763;55.798;37.782;2023-02-16T07:31:54;146820.34;;;-2.06;70.58
33422;BME280;19763;55.798;37.782;2023-02-16T07:34:20;146782.28;;;-2.21;70.85
33422;BME280;19763;55.798;37.782;2023-02-16T07:36:46;146781.03;;;-2.22;71.83
33422;BME280;19763;55.798;37.782;2023-02-16T07:39:12;146717.59;;;-2.48;72.14
33422;BME280;19763;55.798;37.782;2023-02-16T07:41:37;146740.41;;;-2.38;71.80
33422;BME280;19763;55.798;37.782;2023-02-16T07:44:03;146718.84;;;-2.47;71.68
33422;BME280;19763;55.798;37.782;2023-02-16T07:46:28;146792.44;;;-2.17;72.02
33422;BME280;19763;55.798;37.782;2023-02-16T07:48:54;146816.56;;;-2.08;71.30
33422;BME280;19763;55.798;37.782;2023-02-16T07:51:27;146777.22;;;-2.23;70.69
33422;BME280;19763;55.798;37.782;2023-02-16T07:53:54;146749.31;;;-2.35;71.52
33422;BME280;19763;55.798;37.782;2023-02-16T07:56:27;146722.66;;;-2.46;71.52
33422;BME280;19763;55.798;37.782;2023-02-16T07:58:55;146713.78;;;-2.49;71.87
33422;BME280;19763;55.798;37.782;2023-02-16T08:01:21;146685.88;;;-2.61;72.05
33422;BME280;19763;55.798;37.782;2023-02-16T08:03:48;146726.44;;;-2.44;71.63
33422;BME280;19763;55.798;37.782;2023-02-16T08:06:14;146784.81;;;-2.20;71.66
33422;BME280;19763;55.798;37.782;2023-02-16T08:08:40;146826.72;;;-2.03;71.15
33422;BME280;19763;55.798;37.782;2023-02-16T08:11:08;146769.63;;;-2.27;71.32
33422;BME280;19763;55.798;37.782;2023-02-16T08:13:34;146725.19;;;-2.45;70.22
33422;BME280;19763;55.798;37.782;2023-02-16T08:16:00;146721.41;;;-2.46;71.67
33422;BME280;19763;55.798;37.782;2023-02-16T08:18:25;146744.22;;;-2.37;71.04
33422;BME280;19763;55.798;37.782;2023-02-16T08:20:51;146683.34;;;-2.62;72.22
33422;BME280;19763;55.798;37.782;2023-02-16T08:23:16;146725.19;;;-2.45;71.79
33422;BME280;19763;55.798;37.782;2023-02-16T08:25:42;146753.13;;;-2.33;71.47
33422;BME280;19763;55.798;37.782;2023-02-16T08:28:08;146769.63;;;-2.27;71.18
33422;BME280;19763;55.798;37.782;2023-02-16T08:30:34;146765.78;;;-2.28;70.81
33422;BME280;19763;55.798;37.782;2023-02-16T08:33:00;146789.88;;;-2.18;71.30
33422;BME280;19763;55.798;37.782;2023-02-16T08:35:27;146816.56;;;-2.08;71.56
33422;BME280;19763;55.798;37.782;2023-02-16T08:37:55;146805.16;;;-2.12;70.71
33422;BME280;19763;55.798;37.782;2023-02-16T08:40:20;146749.31;;;-2.35;71.83
33422;BME280;19763;55.798;37.782;2023-02-16T08:42:49;146764.53;;;-2.29;70.58
33422;BME280;19763;55.798;37.782;2023-02-16T08:45:14;146840.69;;;-1.98;71.60
33422;BME280;19763;55.798;37.782;2023-02-16T08:47:40;146847.03;;;-1.95;69.84
33422;BME280;19763;55.798;37.782;2023-02-16T08:50:06;146906.69;;;-1.71;69.97
33422;BME280;19763;55.798;37.782;2023-02-16T08:52:32;146939.66;;;-1.58;69.35
33422;BME280;19763;55.798;37.782;2023-02-16T08:54:57;146957.44;;;-1.50;68.57
33422;BME280;19763;55.798;37.782;2023-02-16T08:57:23;146968.88;;;-1.46;68.46
33422;BME280;19763;55.798;37.782;2023-02-16T08:59:48;146962.50;;;-1.48;68.41
33422;BME280;19763;55.798;37.782;2023-02-16T09:02:34;146815.31;;;-2.08;69.37
33422;BME280;19763;55.798;37.782;2023-02-16T09:04:59;146888.88;;;-1.78;69.05
33422;BME280;19763;55.798;37.782;2023-02-16T09:07:25;146916.81;;;-1.67;68.53
33422;BME280;19763;55.798;37.782;2023-02-16T09:09:50;146949.84;;;-1.53;68.60
33422;BME280;19763;55.798;37.782;2023-02-16T09:12:17;146956.19;;;-1.51;67.56
33422;BME280;19763;55.798;37.782;2023-02-16T09:14:42;146942.22;;;-1.57;67.81
33422;BME280;19763;55.798;37.782;2023-02-16T09:17:08;146937.13;;;-1.59;67.03
33422;BME280;19763;55.798;37.782;2023-02-16T09:19:34;146934.56;;;-1.60;67.45
33422;BME280;19763;55.798;37.782;2023-02-16T09:21:59;146944.72;;;-1.56;67.17
33422;BME280;19763;55.798;37.782;2023-02-16T09:24:25;146925.72;;;-1.63;66.96
33422;BME280;19763;55.798;37.782;2023-02-16T09:26:51;146872.41;;;-1.85;66.08
33422;BME280;19763;55.798;37.782;2023-02-16T09:29:16;146899.03;;;-1.74;66.28
33422;BME280;19763;55.798;37.782;2023-02-16T09:31:42;146850.84;;;-1.94;67.04
33422;BME280;19763;55.798;37.782;2023-02-16T09:34:20;146906.69;;;-1.71;67.97
33422;BME280;19763;55.798;37.782;2023-02-16T09:36:47;146885.06;;;-1.80;66.08
33422;BME280;19763;55.798;37.782;2023-02-16T09:39:14;146883.81;;;-1.80;65.65
33422;BME280;19763;55.798;37.782;2023-02-16T09:41:59;146871.09;;;-1.85;67.35
33422;BME280;19763;55.798;37.782;2023-02-16T09:49:50;146749.31;;;-2.35;67.27
33422;BME280;19763;55.798;37.782;2023-02-16T09:52:27;146685.88;;;-2.61;68.18
33422;BME280;19763;55.798;37.782;2023-02-16T09:54:57;146824.16;;;-2.04;68.11
33422;BME280;19763;55.798;37.782;2023-02-16T10:00:35;146754.38;;;-2.33;66.63
33422;BME280;19763;55.798;37.782;2023-02-16T10:06:27;146853.34;;;-1.93;66.43
33422;BME280;19763;55.798;37.782;2023-02-16T10:09:04;146801.34;;;-2.14;66.16
33422;BME280;19763;55.798;37.782;2023-02-16T10:11:40;146806.41;;;-2.12;66.33
33422;BME280;19763;55.798;37.782;2023-02-16T10:30:48;146914.28;;;-1.68;63.89
33422;BME280;19763;55.798;37.782;2023-02-16T10:33:28;146919.34;;;-1.66;62.92
33422;BME280;19763;55.798;37.782;2023-02-16T10:36:00;146767.06;;;-2.28;63.62
33422;BME280;19763;55.798;37.782;2023-02-16T10:41:33;146791.19;;;-2.18;63.08
33422;BME280;19763;55.798;37.782;2023-02-16T10:44:33;146781.03;;;-2.22;62.70
33422;BME280;19763;55.798;37.782;2023-02-16T10:47:03;146838.13;;;-1.99;60.86
33422;BME280;19763;55.798;37.782;2023-02-16T10:49:31;146741.72;;;-2.38;60.47
33422;BME280;19763;55.798;37.782;2023-02-16T10:52:01;146721.41;;;-2.46;62.15
33422;BME280;19763;55.798;37.782;2023-02-16T10:54:30;146749.31;;;-2.35;61.22
33422;BME280;19763;55.798;37.782;2023-02-16T10:59:42;146821.59;;;-2.05;62.43
33422;BME280;19763;55.798;37.782;2023-02-16T11:02:35;146792.44;;;-2.17;60.85
33422;BME280;19763;55.798;37.782;2023-02-16T11:07:56;146861.00;;;-1.89;61.53
33422;BME280;19763;55.798;37.782;2023-02-16T11:10:40;146850.84;;;-1.94;60.24
33422;BME280;19763;55.798;37.782;2023-02-16T11:13:09;146782.28;;;-2.21;60.60
33422;BME280;19763;55.798;37.782;2023-02-16T11:15:42;146717.59;;;-2.48;60.14
33422;BME280;19763;55.798;37.782;2023-02-16T11:20:56;146775.94;;;-2.24;61.91
33422;BME280;19763;55.798;37.782;2023-02-16T11:23:41;146793.69;;;-2.17;59.90
33422;BME280;19763;55.798;37.782;2023-02-16T11:28:39;146868.59;;;-1.86;61.26
33422;BME280;19763;55.798;37.782;2023-02-16T11:31:17;146881.25;;;-1.81;59.76
33422;BME280;19763;55.798;37.782;2023-02-16T11:36:52;146928.25;;;-1.62;60.85
33422;BME280;19763;55.798;37.782;2023-02-16T11:39:27;146942.22;;;-1.57;60.98
33422;BME280;19763;55.798;37.782;2023-02-16T11:42:08;146947.28;;;-1.54;59.14
33422;BME280;19763;55.798;37.782;2023-02-16T11:44:42;146960.00;;;-1.49;60.75
33422;BME280;19763;55.798;37.782;2023-02-16T11:47:34;146935.88;;;-1.59;60.06
33422;BME280;19763;55.798;37.782;2023-02-16T11:52:51;146876.19;;;-1.83;58.62
33422;BME280;19763;55.798;37.782;2023-02-16T11:55:31;146825.41;;;-2.04;59.21
33422;BME280;19763;55.798;37.782;2023-02-16T12:04:06;146812.75;;;-2.09;59.28
33422;BME280;19763;55.798;37.782;2023-02-16T12:10:07;146840.69;;;-1.98;58.83
33422;BME280;19763;55.798;37.782;2023-02-16T12:15:28;146861.00;;;-1.89;58.80
33422;BME280;19763;55.798;37.782;2023-02-16T12:23:41;146911.75;;;-1.69;58.22
33422;BME280;19763;55.798;37.782;2023-02-16T12:29:26;146942.22;;;-1.57;58.00
33422;BME280;19763;55.798;37.782;2023-02-16T12:34:36;146839.38;;;-1.98;59.00
33422;BME280;19763;55.798;37.782;2023-02-16T12:45:19;146924.47;;;-1.64;59.40
33422;BME280;19763;55.798;37.782;2023-02-16T12:47:51;146956.19;;;-1.51;59.05
33422;BME280;19763;55.798;37.782;2023-02-16T12:50:29;146970.16;;;-1.45;59.31
33422;BME280;19763;55.798;37.782;2023-02-16T12:55:44;146953.63;;;-1.52;59.73
33422;BME280;19763;55.798;37.782;2023-02-16T12:58:23;146937.13;;;-1.59;59.32
33422;BME280;19763;55.798;37.782;2023-02-16T13:00:58;146942.22;;;-1.57;59.98
33422;BME280;19763;55.798;37.782;2023-02-16T13:03:36;146965.06;;;-1.47;59.99
33422;BME280;19763;55.798;37.782;2023-02-16T13:06:23;146965.06;;;-1.47;60.61
33422;BME280;19763;55.798;37.782;2023-02-16T13:09:07;146902.84;;;-1.73;58.93
33422;BME280;19763;55.798;37.782;2023-02-16T13:14:22;146855.88;;;-1.92;59.66
33422;BME280;19763;55.798;37.782;2023-02-16T13:16:53;146882.56;;;-1.81;60.44
33422;BME280;19763;55.798;37.782;2023-02-16T13:19:20;146829.22;;;-2.02;59.51
33422;BME280;19763;55.798;37.782;2023-02-16T13:27:09;146840.69;;;-1.98;60.84
33422;BME280;19763;55.798;37.782;2023-02-16T13:33:07;146901.59;;;-1.73;62.43
33422;BME280;19763;55.798;37.782;2023-02-16T13:46:39;146765.78;;;-2.28;58.86
33422;BME280;19763;55.798;37.782;2023-02-16T13:49:38;146767.06;;;-2.28;60.59
33422;BME280;19763;55.798;37.782;2023-02-16T13:52:09;146722.66;;;-2.46;60.72
33422;BME280;19763;55.798;37.782;2023-02-16T13:54:40;146732.81;;;-2.41;61.13
33422;BME280;19763;55.798;37.782;2023-02-16T13:57:12;146742.97;;;-2.37;60.62
33422;BME280;19763;55.798;37.782;2023-02-16T13:59:57;146741.72;;;-2.38;62.94
33422;BME280;19763;55.798;37.782;2023-02-16T14:05:23;146744.22;;;-2.37;62.86
33422;BME280;19763;55.798;37.782;2023-02-16T14:08:09;146735.34;;;-2.40;63.32
33422;BME280;19763;55.798;37.782;2023-02-16T14:13:31;146621.19;;;-2.87;63.91
33422;BME280;19763;55.798;37.782;2023-02-16T14:18:59;146650.38;;;-2.75;63.87
33422;BME280;19763;55.798;37.782;2023-02-16T14:21:41;146604.72;;;-2.93;63.80
33422;BME280;19763;55.798;37.782;2023-02-16T14:26:58;146689.69;;;-2.59;64.43
33422;BME280;19763;55.798;37.782;2023-02-16T14:29:58;146671.94;;;-2.66;64.81
33422;BME280;19763;55.798;37.782;2023-02-16T14:32:28;146688.38;;;-2.60;64.59
33422;BME280;19763;55.798;37.782;2023-02-16T14:35:13;146657.97;;;-2.72;63.97
33422;BME280;19763;55.798;37.782;2023-02-16T14:40:29;146574.28;;;-3.06;64.93
33422;BME280;19763;55.798;37.782;2023-02-16T14:43:10;146560.31;;;-3.12;64.96
33422;BME280;19763;55.798;37.782;2023-02-16T14:54:39;146485.56;;;-3.42;64.25
33422;BME280;19763;55.798;37.782;2023-02-16T14:59:50;146437.38;;;-3.61;64.41
33422;BME280;19763;55.798;37.782;2023-02-16T15:02:28;146453.88;;;-3.55;63.76
33422;BME280;19763;55.798;37.782;2023-02-16T15:04:54;146462.72;;;-3.51;63.87
33422;BME280;19763;55.798;37.782;2023-02-16T15:07:21;146427.22;;;-3.66;64.88
33422;BME280;19763;55.798;37.782;2023-02-16T15:09:53;146417.09;;;-3.70;64.74
33422;BME280;19763;55.798;37.782;2023-02-16T15:12:27;146368.94;;;-3.89;65.82
33422;BME280;19763;55.798;37.782;2023-02-16T15:14:58;146398.09;;;-3.77;66.10
33422;BME280;19763;55.798;37.782;2023-02-16T15:17:34;146336.00;;;-4.03;65.21
33422;BME280;19763;55.798;37.782;2023-02-16T15:20:29;146425.97;;;-3.66;66.28
33422;BME280;19763;55.798;37.782;2023-02-16T15:23:03;146396.81;;;-3.78;66.06
33422;BME280;19763;55.798;37.782;2023-02-16T15:25:38;146404.41;;;-3.75;66.82
33422;BME280;19763;55.798;37.782;2023-02-16T15:30:36;146380.38;;;-3.85;66.66
33422;BME280;19763;55.798;37.782;2023-02-16T15:33:13;146341.06;;;-4.01;66.16
33422;BME280;19763;55.798;37.782;2023-02-16T15:38:27;146299.25;;;-4.18;67.16
33422;BME280;19763;55.798;37.782;2023-02-16T15:41:02;146298.00;;;-4.18;68.24
33422;BME280;19763;55.798;37.782;2023-02-16T15:43:35;146298.00;;;-4.18;69.47
33422;BME280;19763;55.798;37.782;2023-02-16T15:46:04;146282.81;;;-4.24;69.47
33422;BME280;19763;55.798;37.782;2023-02-16T15:48:36;146279.03;;;-4.26;70.63